ABQ702 OPIS-OPSD
Flight info
| Callsign | ABQ702 |
|---|---|
| Flight time | 0h 47m |
| Altitude | 29000 |
| Route | RN J122 KAGLO J186 DELDA J122 SANAM |
| Aircraft | A320/M-SDE3FGHIRWY/LB1 |
Departure
| Time | 2026-05-09 08:15 |
|---|---|
| Airport | Islamabad International Airport (OPIS) |
Arrival
| Time | 2026-05-09 09:02 |
|---|---|
| Airport | Skardu International Airport (OPSD) |
| Time | Latitude | Longitude | Altitude | Speed | Heading |
|---|---|---|---|---|---|
| 2026-05-09 07:49 | 33.55812 | 72.83203 | 1771 ft | 0 kts | 100° |
| 2026-05-09 08:04 | 33.55814 | 72.83189 | 1774 ft | 3 kts | 105° |
| 2026-05-09 08:04 | 33.55821 | 72.83165 | 1773 ft | 2 kts | 118° |
| 2026-05-09 08:04 | 33.55831 | 72.83147 | 1772 ft | 3 kts | 135° |
| 2026-05-09 08:05 | 33.55844 | 72.83135 | 1772 ft | 2 kts | 154° |
| 2026-05-09 08:05 | 33.55861 | 72.83127 | 1771 ft | 3 kts | 172° |
| 2026-05-09 08:05 | 33.55881 | 72.83126 | 1773 ft | 2 kts | 183° |
| 2026-05-09 08:05 | 33.55895 | 72.83127 | 1771 ft | 2 kts | 187° |
| 2026-05-09 08:06 | 33.55906 | 72.83129 | 1772 ft | 2 kts | 188° |
| 2026-05-09 08:06 | 33.55913 | 72.83130 | 1771 ft | 0 kts | 189° |
| 2026-05-09 08:08 | 33.55881 | 72.83124 | 1772 ft | 9 kts | 191° |
| 2026-05-09 08:09 | 33.55790 | 72.83103 | 1772 ft | 17 kts | 190° |
| 2026-05-09 08:09 | 33.55657 | 72.83068 | 1772 ft | 20 kts | 209° |
| 2026-05-09 08:09 | 33.55580 | 72.82943 | 1770 ft | 19 kts | 233° |
| 2026-05-09 08:09 | 33.55502 | 72.82808 | 1771 ft | 20 kts | 235° |
| 2026-05-09 08:10 | 33.55421 | 72.82664 | 1771 ft | 21 kts | 234° |
| 2026-05-09 08:10 | 33.55293 | 72.82610 | 1772 ft | 20 kts | 187° |
| 2026-05-09 08:10 | 33.55204 | 72.82523 | 1768 ft | 17 kts | 280° |
| 2026-05-09 08:10 | 33.55231 | 72.82353 | 1768 ft | 27 kts | 280° |
| 2026-05-09 08:11 | 33.55271 | 72.82129 | 1771 ft | 27 kts | 275° |
| 2026-05-09 08:11 | 33.55302 | 72.81906 | 1768 ft | 27 kts | 283° |
| 2026-05-09 08:11 | 33.55340 | 72.81681 | 1771 ft | 27 kts | 277° |
| 2026-05-09 08:11 | 33.55372 | 72.81448 | 1769 ft | 29 kts | 279° |
| 2026-05-09 08:12 | 33.55444 | 72.80973 | 1771 ft | 29 kts | 281° |
| 2026-05-09 08:12 | 33.55477 | 72.80757 | 1768 ft | 20 kts | 274° |
| 2026-05-09 08:12 | 33.55421 | 72.80688 | 1769 ft | 0 kts | 189° |
| 2026-05-09 08:13 | 33.55381 | 72.80680 | 1767 ft | 16 kts | 189° |
| 2026-05-09 08:13 | 33.55234 | 72.80648 | 1752 ft | 29 kts | 191° |
| 2026-05-09 08:13 | 33.55108 | 72.80640 | 1755 ft | 5 kts | 121° |
| 2026-05-09 08:14 | 33.55103 | 72.80673 | 1755 ft | 6 kts | 100° |
| 2026-05-09 08:14 | 33.55056 | 72.80969 | 1756 ft | 72 kts | 100° |
| 2026-05-09 08:14 | 33.54924 | 72.81804 | 1759 ft | 130 kts | 101° |
| 2026-05-09 08:14 | 33.54729 | 72.83064 | 1768 ft | 175 kts | 100° |
| 2026-05-09 08:15 | 33.54501 | 72.84493 | 2294 ft | 173 kts | 102° |
| 2026-05-09 08:15 | 33.54266 | 72.85919 | 2864 ft | 176 kts | 101° |
| 2026-05-09 08:15 | 33.54040 | 72.87376 | 3448 ft | 179 kts | 99° |
| 2026-05-09 08:15 | 33.54123 | 72.88859 | 3844 ft | 185 kts | 74° |
| 2026-05-09 08:16 | 33.54523 | 72.90396 | 4183 ft | 201 kts | 69° |
| 2026-05-09 08:16 | 33.55005 | 72.92035 | 4498 ft | 216 kts | 69° |
| 2026-05-09 08:16 | 33.55528 | 72.93803 | 4830 ft | 234 kts | 69° |
| 2026-05-09 08:16 | 33.56083 | 72.95726 | 5157 ft | 254 kts | 70° |
| 2026-05-09 08:17 | 33.56664 | 72.97799 | 5676 ft | 271 kts | 71° |
| 2026-05-09 08:17 | 33.57268 | 73.00009 | 6203 ft | 287 kts | 71° |
| 2026-05-09 08:17 | 33.57880 | 73.02289 | 6941 ft | 293 kts | 71° |
| 2026-05-09 08:17 | 33.58502 | 73.04635 | 7745 ft | 297 kts | 71° |
| 2026-05-09 08:18 | 33.59147 | 73.07005 | 8567 ft | 300 kts | 66° |
| 2026-05-09 08:18 | 33.60256 | 73.09099 | 9388 ft | 299 kts | 43° |
| 2026-05-09 08:18 | 33.61949 | 73.10497 | 10151 ft | 296 kts | 18° |
| 2026-05-09 08:18 | 33.63967 | 73.11006 | 10739 ft | 302 kts | 356° |
| 2026-05-09 08:19 | 33.66050 | 73.10523 | 11222 ft | 312 kts | 339° |
| 2026-05-09 08:19 | 33.68170 | 73.09672 | 11672 ft | 330 kts | 339° |
| 2026-05-09 08:19 | 33.69668 | 73.09076 | 11910 ft | 341 kts | 339° |
| 2026-05-09 08:19 | 33.71972 | 73.08168 | 12330 ft | 355 kts | 340° |
| 2026-05-09 08:20 | 33.74342 | 73.07243 | 13010 ft | 361 kts | 340° |
| 2026-05-09 08:20 | 33.76748 | 73.06308 | 13717 ft | 365 kts | 340° |
| 2026-05-09 08:20 | 33.79185 | 73.05361 | 14392 ft | 369 kts | 340° |
| 2026-05-09 08:20 | 33.79913 | 73.05079 | 14577 ft | 371 kts | 340° |
| 2026-05-09 08:22 | 33.80761 | 73.04751 | 14797 ft | 372 kts | 340° |
| 2026-05-09 08:22 | 33.80821 | 73.04727 | 14813 ft | 372 kts | 340° |
| 2026-05-09 08:22 | 33.83273 | 73.03776 | 15442 ft | 375 kts | 340° |
| 2026-05-09 08:22 | 33.83312 | 73.03761 | 15453 ft | 375 kts | 340° |
| 2026-05-09 08:23 | 33.84705 | 73.03218 | 15787 ft | 377 kts | 340° |
| 2026-05-09 08:23 | 33.87213 | 73.02242 | 16388 ft | 381 kts | 340° |
| 2026-05-09 08:24 | 33.89753 | 73.01255 | 16917 ft | 386 kts | 340° |
| 2026-05-09 08:24 | 33.89837 | 73.01222 | 16938 ft | 386 kts | 340° |
| 2026-05-09 08:25 | 33.89902 | 73.01197 | 16949 ft | 386 kts | 340° |
| 2026-05-09 08:25 | 33.92463 | 73.00199 | 17562 ft | 388 kts | 340° |
| 2026-05-09 08:25 | 33.95006 | 72.99211 | 18162 ft | 390 kts | 341° |
| 2026-05-09 08:26 | 33.97688 | 72.98580 | 18729 ft | 396 kts | 353° |
| 2026-05-09 08:26 | 34.00459 | 72.98639 | 19278 ft | 402 kts | 5° |
| 2026-05-09 08:26 | 34.03200 | 72.99424 | 19818 ft | 408 kts | 18° |
| 2026-05-09 08:26 | 34.05784 | 73.00911 | 20340 ft | 414 kts | 28° |
| 2026-05-09 08:27 | 34.08280 | 73.02670 | 20829 ft | 418 kts | 28° |
| 2026-05-09 08:27 | 34.10800 | 73.04443 | 21305 ft | 421 kts | 28° |
| 2026-05-09 08:27 | 34.13342 | 73.06230 | 21744 ft | 425 kts | 28° |
| 2026-05-09 08:27 | 34.15912 | 73.08035 | 22152 ft | 429 kts | 28° |
| 2026-05-09 08:28 | 34.18508 | 73.09855 | 22562 ft | 433 kts | 28° |
| 2026-05-09 08:28 | 34.21120 | 73.11685 | 22963 ft | 436 kts | 28° |
| 2026-05-09 08:28 | 34.23752 | 73.13532 | 23411 ft | 438 kts | 28° |
| 2026-05-09 08:28 | 34.26390 | 73.15387 | 23850 ft | 440 kts | 28° |
| 2026-05-09 08:29 | 34.29042 | 73.17258 | 24211 ft | 443 kts | 28° |
| 2026-05-09 08:29 | 34.31718 | 73.19147 | 24597 ft | 445 kts | 28° |
| 2026-05-09 08:29 | 34.34405 | 73.21041 | 24971 ft | 447 kts | 28° |
| 2026-05-09 08:29 | 34.37100 | 73.22934 | 25334 ft | 449 kts | 28° |
| 2026-05-09 08:30 | 34.39811 | 73.24835 | 25683 ft | 452 kts | 28° |
| 2026-05-09 08:30 | 34.42572 | 73.26678 | 26024 ft | 453 kts | 26° |
| 2026-05-09 08:30 | 34.45352 | 73.28402 | 26351 ft | 455 kts | 24° |
| 2026-05-09 08:30 | 34.48204 | 73.30086 | 26665 ft | 458 kts | 24° |
| 2026-05-09 08:31 | 34.51087 | 73.31760 | 26912 ft | 461 kts | 24° |
| 2026-05-09 08:31 | 34.53994 | 73.33459 | 27141 ft | 465 kts | 24° |
| 2026-05-09 08:31 | 34.56895 | 73.35184 | 27485 ft | 465 kts | 24° |
| 2026-05-09 08:31 | 34.59800 | 73.36938 | 27796 ft | 466 kts | 25° |
| 2026-05-09 08:32 | 34.62705 | 73.38710 | 28074 ft | 469 kts | 25° |
| 2026-05-09 08:32 | 34.65627 | 73.40500 | 28237 ft | 472 kts | 25° |
| 2026-05-09 08:32 | 34.70721 | 73.43635 | 28515 ft | 477 kts | 25° |
| 2026-05-09 08:33 | 34.73688 | 73.45459 | 28646 ft | 479 kts | 25° |
| 2026-05-09 08:33 | 34.76669 | 73.47284 | 28767 ft | 480 kts | 26° |
| 2026-05-09 08:33 | 34.79524 | 73.49409 | 28923 ft | 484 kts | 35° |
| 2026-05-09 08:34 | 34.80889 | 73.50669 | 28976 ft | 484 kts | 36° |
| 2026-05-09 08:35 | 34.83262 | 73.52894 | 29011 ft | 476 kts | 36° |
| 2026-05-09 08:36 | 34.88484 | 73.57820 | 29010 ft | 480 kts | 36° |
| 2026-05-09 08:36 | 34.93799 | 73.62837 | 29007 ft | 486 kts | 36° |
| 2026-05-09 08:37 | 34.99182 | 73.67910 | 29003 ft | 490 kts | 36° |
| 2026-05-09 08:37 | 35.04586 | 73.73012 | 29011 ft | 491 kts | 36° |
| 2026-05-09 08:38 | 35.10008 | 73.78146 | 29008 ft | 496 kts | 36° |
| 2026-05-09 08:38 | 35.15469 | 73.83320 | 29010 ft | 497 kts | 36° |
| 2026-05-09 08:39 | 35.20935 | 73.88512 | 29009 ft | 498 kts | 36° |
| 2026-05-09 08:39 | 35.26403 | 73.93712 | 29007 ft | 498 kts | 36° |
| 2026-05-09 08:40 | 35.31833 | 73.98877 | 29006 ft | 493 kts | 36° |
| 2026-05-09 08:40 | 35.37223 | 74.04023 | 29010 ft | 489 kts | 36° |
| 2026-05-09 08:41 | 35.42048 | 74.09832 | 29010 ft | 486 kts | 53° |
| 2026-05-09 08:41 | 35.45365 | 74.17065 | 28995 ft | 489 kts | 62° |
| 2026-05-09 08:42 | 35.48486 | 74.24505 | 28986 ft | 494 kts | 62° |
| 2026-05-09 08:42 | 35.51673 | 74.32066 | 28982 ft | 497 kts | 62° |
| 2026-05-09 08:43 | 35.54828 | 74.39583 | 29013 ft | 499 kts | 62° |
| 2026-05-09 08:43 | 35.58000 | 74.47196 | 29007 ft | 501 kts | 62° |
| 2026-05-09 08:43 | 35.59589 | 74.51008 | 28869 ft | 503 kts | 62° |
| 2026-05-09 08:44 | 35.61175 | 74.54805 | 28442 ft | 494 kts | 62° |
| 2026-05-09 08:44 | 35.62737 | 74.58542 | 27669 ft | 490 kts | 62° |
| 2026-05-09 08:44 | 35.64299 | 74.62239 | 26949 ft | 484 kts | 61° |
| 2026-05-09 08:44 | 35.65893 | 74.65851 | 26235 ft | 478 kts | 60° |
| 2026-05-09 08:45 | 35.67516 | 74.69399 | 25530 ft | 474 kts | 59° |
| 2026-05-09 08:45 | 35.69046 | 74.72980 | 24840 ft | 471 kts | 66° |
| 2026-05-09 08:45 | 35.70033 | 74.76797 | 24148 ft | 467 kts | 78° |
| 2026-05-09 08:45 | 35.70361 | 74.80744 | 23469 ft | 462 kts | 91° |
| 2026-05-09 08:46 | 35.70036 | 74.84651 | 22819 ft | 457 kts | 102° |
| 2026-05-09 08:46 | 35.69196 | 74.88386 | 22198 ft | 451 kts | 107° |
| 2026-05-09 08:46 | 35.68294 | 74.92065 | 21612 ft | 447 kts | 107° |
| 2026-05-09 08:46 | 35.67451 | 74.95563 | 21082 ft | 444 kts | 107° |
| 2026-05-09 08:47 | 35.66638 | 74.98965 | 20570 ft | 440 kts | 107° |
| 2026-05-09 08:47 | 35.65783 | 75.02555 | 20049 ft | 435 kts | 107° |
| 2026-05-09 08:47 | 35.64930 | 75.06105 | 19525 ft | 431 kts | 107° |
| 2026-05-09 08:47 | 35.64079 | 75.09624 | 19015 ft | 427 kts | 107° |
| 2026-05-09 08:48 | 35.63232 | 75.13109 | 18501 ft | 424 kts | 107° |
| 2026-05-09 08:48 | 35.62388 | 75.16572 | 17968 ft | 422 kts | 107° |
| 2026-05-09 08:48 | 35.61547 | 75.20010 | 17442 ft | 418 kts | 107° |
| 2026-05-09 08:48 | 35.60720 | 75.23381 | 16915 ft | 417 kts | 107° |
| 2026-05-09 08:49 | 35.59904 | 75.26704 | 16739 ft | 393 kts | 107° |
| 2026-05-09 08:49 | 35.58986 | 75.29742 | 16608 ft | 367 kts | 117° |
| 2026-05-09 08:49 | 35.57708 | 75.32330 | 16489 ft | 343 kts | 129° |
| 2026-05-09 08:49 | 35.56164 | 75.34459 | 16381 ft | 325 kts | 139° |
| 2026-05-09 08:50 | 35.54449 | 75.36143 | 16198 ft | 309 kts | 149° |
| 2026-05-09 08:50 | 35.52646 | 75.37524 | 15781 ft | 304 kts | 150° |
| 2026-05-09 08:50 | 35.50854 | 75.38872 | 15312 ft | 302 kts | 150° |
| 2026-05-09 08:50 | 35.49063 | 75.40217 | 14904 ft | 301 kts | 151° |
| 2026-05-09 08:51 | 35.47293 | 75.41552 | 14507 ft | 296 kts | 150° |
| 2026-05-09 08:51 | 35.45550 | 75.42867 | 14054 ft | 294 kts | 151° |
| 2026-05-09 08:51 | 35.43828 | 75.44164 | 13899 ft | 287 kts | 151° |
| 2026-05-09 08:51 | 35.42163 | 75.45419 | 13759 ft | 275 kts | 150° |
| 2026-05-09 08:52 | 35.40561 | 75.46628 | 13633 ft | 266 kts | 150° |
| 2026-05-09 08:52 | 35.39015 | 75.47792 | 13508 ft | 256 kts | 151° |
| 2026-05-09 08:52 | 35.37523 | 75.48912 | 13381 ft | 247 kts | 152° |
| 2026-05-09 08:52 | 35.36094 | 75.49982 | 13310 ft | 234 kts | 149° |
| 2026-05-09 08:53 | 35.34736 | 75.50995 | 13171 ft | 224 kts | 149° |
| 2026-05-09 08:53 | 35.33446 | 75.52016 | 13048 ft | 216 kts | 150° |
| 2026-05-09 08:53 | 35.32235 | 75.53001 | 13013 ft | 203 kts | 149° |
| 2026-05-09 08:53 | 35.31096 | 75.54012 | 12761 ft | 203 kts | 142° |
| 2026-05-09 08:54 | 35.30094 | 75.55211 | 12526 ft | 200 kts | 134° |
| 2026-05-09 08:54 | 35.29281 | 75.56538 | 12467 ft | 190 kts | 125° |
| 2026-05-09 08:54 | 35.28668 | 75.57941 | 12313 ft | 186 kts | 112° |
| 2026-05-09 08:54 | 35.28347 | 75.59475 | 12070 ft | 185 kts | 95° |
| 2026-05-09 08:55 | 35.28389 | 75.61039 | 11677 ft | 186 kts | 77° |
| 2026-05-09 08:55 | 35.28813 | 75.62625 | 11646 ft | 199 kts | 63° |
| 2026-05-09 08:55 | 35.29302 | 75.64251 | 11768 ft | 221 kts | 74° |
| 2026-05-09 08:55 | 35.29642 | 75.66223 | 11565 ft | 245 kts | 72° |
| 2026-05-09 08:56 | 35.30290 | 75.67958 | 11773 ft | 206 kts | 45° |
| 2026-05-09 08:56 | 35.31275 | 75.68828 | 12033 ft | 152 kts | 6° |
| 2026-05-09 08:56 | 35.32305 | 75.68791 | 11409 ft | 157 kts | 330° |
| 2026-05-09 08:56 | 35.33288 | 75.68040 | 11204 ft | 163 kts | 301° |
| 2026-05-09 08:57 | 35.33818 | 75.66999 | 11406 ft | 142 kts | 285° |
| 2026-05-09 08:57 | 35.33987 | 75.65723 | 10925 ft | 170 kts | 275° |
| 2026-05-09 08:57 | 35.34205 | 75.64170 | 10639 ft | 196 kts | 284° |
| 2026-05-09 08:57 | 35.34569 | 75.62572 | 10413 ft | 191 kts | 283° |
| 2026-05-09 08:58 | 35.34855 | 75.61046 | 10145 ft | 177 kts | 281° |
| 2026-05-09 08:58 | 35.35078 | 75.59627 | 9879 ft | 164 kts | 279° |
| 2026-05-09 08:58 | 35.35248 | 75.58300 | 9664 ft | 150 kts | 283° |
| 2026-05-09 08:58 | 35.35690 | 75.57257 | 9511 ft | 136 kts | 304° |
| 2026-05-09 08:59 | 35.36396 | 75.56316 | 9537 ft | 161 kts | 311° |
| 2026-05-09 08:59 | 35.37115 | 75.55328 | 9920 ft | 152 kts | 307° |
| 2026-05-09 08:59 | 35.37886 | 75.54353 | 9949 ft | 172 kts | 318° |
| 2026-05-09 08:59 | 35.38941 | 75.53439 | 9607 ft | 191 kts | 328° |
| 2026-05-09 09:00 | 35.40182 | 75.52944 | 9262 ft | 177 kts | 310° |
| 2026-05-09 09:00 | 35.40543 | 75.51706 | 9376 ft | 158 kts | 254° |
| 2026-05-09 09:00 | 35.39746 | 75.50771 | 9531 ft | 174 kts | 192° |
| 2026-05-09 09:00 | 35.38502 | 75.50776 | 8759 ft | 196 kts | 174° |
| 2026-05-09 09:01 | 35.37116 | 75.51111 | 7890 ft | 200 kts | 146° |
| 2026-05-09 09:01 | 35.36077 | 75.52056 | 7511 ft | 179 kts | 145° |
| 2026-05-09 09:01 | 35.35102 | 75.52873 | 7304 ft | 164 kts | 149° |
| 2026-05-09 09:01 | 35.34248 | 75.53565 | 7285 ft | 127 kts | 152° |
| 2026-05-09 09:02 | 35.33656 | 75.54015 | 7292 ft | 71 kts | 145° |
| 2026-05-09 09:02 | 35.33403 | 75.54222 | 7295 ft | 32 kts | 146° |
| 2026-05-09 09:02 | 35.33245 | 75.54333 | 7297 ft | 11 kts | 193° |
| 2026-05-09 09:02 | 35.33182 | 75.54235 | 7297 ft | 25 kts | 229° |
| 2026-05-09 09:03 | 35.33090 | 75.54088 | 7297 ft | 9 kts | 195° |
| 2026-05-09 09:03 | 35.33045 | 75.54112 | 7297 ft | 0 kts | 147° |